Saticoy, California
Current Conditions -  °F | °C
As of 10:51 PM on Wednesday 26 Nov 2014 (Local Time) from KOXR Reporting Station
Clear Clear  
Wind Chill: 59°   Ceiling: Unl
Heat Index: 59°   Visibility: 10mi
Dew Point: 43°   Wind: 0mph
Humidity: 55%   Direction: NA
Pressure: 30.13"   Gusts: NA
Location:  34.287°N, 119.172°W
Report Text: KOXR 270651Z AUTO 00000KT 10SM CLR 15/06 A3013 RMK AO2 SLP203 T01500061
Loading
Personal Weather Stations






























Interactive Weather Map New forecast layout! Learn more

10-Day Weather Forecast

Advertisements
Track Severe Weather on mobile